createdAt,value
2019-01-22T00:00:29.491Z,58.30
2019-01-22T00:01:29.472Z,56.00
2019-01-22T00:02:29.453Z,60.60
2019-01-22T00:03:29.435Z,59.10
2019-01-22T00:04:29.417Z,61.20
2019-01-22T00:05:29.404Z,58.90
2019-01-22T00:06:29.382Z,59.90
2019-01-22T00:07:29.366Z,61.00
2019-01-22T00:08:29.346Z,62.20
2019-01-22T00:09:29.330Z,59.20
2019-01-22T00:10:29.310Z,60.00
2019-01-22T00:11:29.294Z,60.70
2019-01-22T00:12:29.275Z,60.40
2019-01-22T00:13:29.259Z,60.00
2019-01-22T00:14:29.238Z,63.00
2019-01-22T00:15:29.221Z,61.00
2019-01-22T00:16:29.202Z,60.20
2019-01-22T00:17:29.184Z,61.20
2019-01-22T00:18:29.169Z,60.10
2019-01-22T00:19:29.153Z,61.70
2019-01-22T00:20:29.129Z,62.00
2019-01-22T00:21:29.113Z,57.10
2019-01-22T00:22:29.095Z,56.90
2019-01-22T00:23:29.076Z,61.30
2019-01-22T00:24:29.057Z,60.30
2019-01-22T00:25:29.043Z,58.50
2019-01-22T00:26:29.025Z,57.40
2019-01-22T00:27:29.006Z,55.70
2019-01-22T00:28:28.987Z,58.80
2019-01-22T00:29:28.970Z,62.70
2019-01-22T00:30:28.954Z,59.20
2019-01-22T00:31:28.935Z,57.00
2019-01-22T00:32:28.917Z,57.50
2019-01-22T00:33:28.900Z,58.60
2019-01-22T00:34:28.880Z,59.80
2019-01-22T00:35:28.861Z,58.90
2019-01-22T00:36:28.844Z,62.00
2019-01-22T00:37:28.826Z,59.50
2019-01-22T00:38:28.807Z,65.40
2019-01-22T00:39:28.789Z,58.20
2019-01-22T00:40:28.776Z,61.00
2019-01-22T00:41:28.756Z,62.80
2019-01-22T00:42:28.737Z,61.80
2019-01-22T00:43:28.718Z,62.50
2019-01-22T00:44:28.704Z,58.20
2019-01-22T00:45:28.682Z,59.40
2019-01-22T00:46:28.666Z,64.60
2019-01-22T00:47:28.647Z,62.90
2019-01-22T00:48:28.629Z,59.20
2019-01-22T00:49:28.614Z,57.90
2019-01-22T00:50:28.593Z,59.00
2019-01-22T00:51:28.577Z,60.10
2019-01-22T00:52:28.559Z,60.90
2019-01-22T00:53:28.540Z,60.20
2019-01-22T00:54:28.522Z,61.80
2019-01-22T00:55:28.504Z,60.30
2019-01-22T00:56:28.487Z,61.10
2019-01-22T00:57:28.469Z,57.90
2019-01-22T00:58:28.452Z,60.20
2019-01-22T00:59:28.434Z,59.90
2019-01-22T01:00:28.414Z,59.80
2019-01-22T01:01:28.396Z,61.10
2019-01-22T01:02:28.379Z,62.90
2019-01-22T01:03:28.361Z,61.20
2019-01-22T01:04:28.345Z,62.00
2019-01-22T01:05:28.325Z,56.70
2019-01-22T01:06:28.310Z,57.70
2019-01-22T01:07:28.293Z,60.40
2019-01-22T01:08:28.275Z,63.70
2019-01-22T01:09:28.257Z,56.80
2019-01-22T01:10:28.239Z,61.70
2019-01-22T01:11:28.224Z,56.00
2019-01-22T01:12:28.204Z,59.80
2019-01-22T01:13:28.185Z,59.50
2019-01-22T01:14:28.167Z,61.50
2019-01-22T01:15:28.152Z,62.00
2019-01-22T01:16:28.131Z,60.90
2019-01-22T01:17:28.115Z,58.70
2019-01-22T01:18:28.097Z,54.80
2019-01-22T01:19:28.080Z,57.30
2019-01-22T01:20:28.063Z,57.50
2019-01-22T01:21:28.045Z,59.30
2019-01-22T01:22:28.025Z,58.40
2019-01-22T01:23:28.009Z,56.80
2019-01-22T01:24:27.993Z,62.90
2019-01-22T01:25:27.975Z,56.90
2019-01-22T01:26:27.956Z,59.90
2019-01-22T01:27:27.941Z,59.80
2019-01-22T01:28:27.925Z,56.40
2019-01-22T01:29:27.906Z,56.30
2019-01-22T01:30:27.888Z,59.90
2019-01-22T01:31:27.868Z,61.80
2019-01-22T01:32:27.849Z,61.10
2019-01-22T01:33:27.835Z,63.40
2019-01-22T01:34:27.816Z,65.10
2019-01-22T01:35:27.799Z,61.20
2019-01-22T01:36:27.781Z,66.20
2019-01-22T01:37:27.764Z,60.80
2019-01-22T01:38:27.746Z,59.90
2019-01-22T01:39:27.731Z,59.20
2019-01-22T01:40:27.711Z,60.10
2019-01-22T01:41:27.697Z,58.70
2019-01-22T01:42:27.678Z,54.40
2019-01-22T01:43:27.662Z,54.90
2019-01-22T01:44:27.642Z,53.40
2019-01-22T01:45:27.629Z,56.80
2019-01-22T01:46:27.607Z,58.40
2019-01-22T01:47:27.590Z,59.90
2019-01-22T01:48:27.576Z,56.30
2019-01-22T01:49:27.557Z,54.60
2019-01-22T01:50:27.538Z,52.60
2019-01-22T01:51:27.523Z,58.90
2019-01-22T01:52:27.503Z,57.90
2019-01-22T01:53:27.486Z,54.30
2019-01-22T01:54:27.473Z,56.90
2019-01-22T01:55:27.453Z,57.90
2019-01-22T01:56:27.434Z,58.80
2019-01-22T01:57:27.416Z,55.30
2019-01-22T01:58:27.400Z,59.40
2019-01-22T01:59:27.382Z,53.90
2019-01-22T02:00:27.364Z,54.70
2019-01-22T02:01:27.347Z,55.70
2019-01-22T02:02:27.330Z,54.10
2019-01-22T02:03:27.311Z,53.80
2019-01-22T02:04:27.296Z,54.90
2019-01-22T02:05:27.279Z,53.00
2019-01-22T02:06:27.261Z,61.00
2019-01-22T02:07:27.244Z,57.90
2019-01-22T02:08:27.224Z,60.70
2019-01-22T02:09:27.210Z,57.00
2019-01-22T02:10:27.192Z,53.40
2019-01-22T02:11:27.174Z,56.50
2019-01-22T02:12:27.157Z,55.70
2019-01-22T02:13:27.139Z,52.80
2019-01-22T02:14:27.124Z,58.20
2019-01-22T02:15:27.105Z,52.30
2019-01-22T02:16:27.089Z,54.70
2019-01-22T02:17:27.072Z,56.30
2019-01-22T02:18:27.051Z,52.30
2019-01-22T02:19:27.036Z,56.50
2019-01-22T02:20:27.021Z,56.70
2019-01-22T02:21:27.003Z,60.10
2019-01-22T02:22:26.984Z,59.40
2019-01-22T02:23:30.620Z,56.30
2019-01-22T02:24:26.950Z,54.40
2019-01-22T02:25:26.930Z,54.70
2019-01-22T02:26:26.913Z,52.70
2019-01-22T02:27:26.896Z,56.00
2019-01-22T02:28:26.880Z,55.30
2019-01-22T02:29:26.860Z,54.20
2019-01-22T02:30:26.846Z,57.10
2019-01-22T02:31:26.824Z,57.90
2019-01-22T02:32:27.766Z,52.90
2019-01-22T02:33:26.790Z,56.60
2019-01-22T02:34:26.777Z,58.30
2019-01-22T02:35:26.755Z,61.30
2019-01-22T02:36:26.737Z,57.90
2019-01-22T02:37:26.724Z,59.30
2019-01-22T02:38:26.728Z,54.40
2019-01-22T02:39:26.687Z,55.20
2019-01-22T02:40:26.667Z,54.90
2019-01-22T02:41:26.653Z,53.00
2019-01-22T02:42:26.638Z,56.00
2019-01-22T02:43:26.615Z,56.40
2019-01-22T02:44:26.598Z,54.80
2019-01-22T02:45:26.581Z,54.50
2019-01-22T02:46:26.563Z,54.00
2019-01-22T02:47:26.548Z,55.40
2019-01-22T02:48:26.528Z,55.50
2019-01-22T02:49:26.512Z,55.30
2019-01-22T02:50:26.494Z,55.30
2019-01-22T02:51:26.477Z,52.40
2019-01-22T02:52:26.457Z,56.20
2019-01-22T02:53:26.442Z,52.70
2019-01-22T02:54:26.424Z,50.80
2019-01-22T02:55:26.407Z,56.80
2019-01-22T02:56:26.392Z,52.50
2019-01-22T02:57:26.372Z,54.20
2019-01-22T02:58:26.354Z,52.10
2019-01-22T02:59:26.342Z,52.40
2019-01-22T03:00:26.323Z,56.00
2019-01-22T03:01:26.303Z,53.00
2019-01-22T03:02:26.286Z,55.70
2019-01-22T03:03:26.271Z,55.40
2019-01-22T03:04:26.252Z,50.00
2019-01-22T03:05:26.238Z,53.20
2019-01-22T03:06:26.216Z,49.90
2019-01-22T03:07:26.204Z,50.80
2019-01-22T03:08:26.182Z,53.50
2019-01-22T03:09:26.167Z,52.70
2019-01-22T03:10:26.147Z,52.30
2019-01-22T03:11:26.130Z,56.60
2019-01-22T03:12:26.111Z,55.10
2019-01-22T03:13:26.098Z,53.20
2019-01-22T03:14:26.079Z,53.40
2019-01-22T03:15:26.061Z,55.60
2019-01-22T03:16:26.042Z,52.90
2019-01-22T03:17:26.026Z,56.50
2019-01-22T03:18:26.010Z,52.90
2019-01-22T03:19:25.993Z,53.30
2019-01-22T03:20:25.975Z,52.30
2019-01-22T03:21:25.957Z,58.30
2019-01-22T03:22:25.944Z,54.10
2019-01-22T03:23:25.924Z,57.90
2019-01-22T03:24:25.904Z,54.90
2019-01-22T03:25:25.889Z,56.50
2019-01-22T03:26:25.871Z,54.70
2019-01-22T03:27:25.852Z,52.30
2019-01-22T03:28:25.835Z,52.00
2019-01-22T03:29:25.818Z,56.70
2019-01-22T03:30:25.802Z,58.60
2019-01-22T03:31:25.784Z,51.80
2019-01-22T03:32:25.772Z,55.10
2019-01-22T03:33:25.751Z,52.60
2019-01-22T03:34:25.735Z,51.20
2019-01-22T03:35:25.714Z,55.90
2019-01-22T03:36:25.694Z,53.90
2019-01-22T03:37:25.679Z,56.50
2019-01-22T03:38:25.663Z,57.80
2019-01-22T03:39:25.644Z,56.90
2019-01-22T03:40:25.627Z,57.70
2019-01-22T03:41:25.611Z,55.40
2019-01-22T03:42:25.593Z,57.30
2019-01-22T03:43:25.575Z,56.40
2019-01-22T03:44:25.561Z,55.00
2019-01-22T03:45:25.543Z,57.30
2019-01-22T03:46:25.512Z,57.80
2019-01-22T03:47:25.497Z,56.10
2019-01-22T03:48:25.490Z,56.70
2019-01-22T03:49:25.459Z,59.50
2019-01-22T03:50:25.421Z,54.90
2019-01-22T03:51:25.403Z,52.80
2019-01-22T03:52:25.384Z,55.50
2019-01-22T03:53:25.389Z,51.30
2019-01-22T03:54:25.352Z,45.80
2019-01-22T03:55:25.334Z,45.90
2019-01-22T03:56:25.314Z,55.40
2019-01-22T03:57:25.297Z,61.50
2019-01-22T03:58:25.280Z,56.80
2019-01-22T03:59:25.265Z,58.60
2019-01-22T04:00:25.246Z,56.30
2019-01-22T04:01:25.228Z,55.70
2019-01-22T04:02:25.212Z,53.40
2019-01-22T04:03:25.194Z,57.50
2019-01-22T04:04:25.174Z,49.90
2019-01-22T04:05:25.316Z,51.60
2019-01-22T04:06:25.141Z,53.40
2019-01-22T04:07:25.121Z,51.90
2019-01-22T04:08:25.103Z,56.30
2019-01-22T04:09:25.089Z,55.20
2019-01-22T04:10:25.070Z,50.50
2019-01-22T04:11:25.053Z,52.40
2019-01-22T04:12:25.033Z,55.70
2019-01-22T04:13:25.018Z,51.40
2019-01-22T04:14:24.998Z,52.60
2019-01-22T04:15:24.982Z,54.40
2019-01-22T04:16:24.966Z,55.00
2019-01-22T04:17:24.944Z,55.90
2019-01-22T04:18:24.932Z,52.20
2019-01-22T04:19:24.917Z,50.50
2019-01-22T04:20:24.894Z,50.50
2019-01-22T04:21:24.875Z,51.90
2019-01-22T04:22:24.858Z,55.10
2019-01-22T04:23:24.840Z,52.10
2019-01-22T04:24:24.822Z,53.10
2019-01-22T04:25:24.806Z,49.00
2019-01-22T04:26:24.790Z,51.60
2019-01-22T04:27:24.924Z,52.70
2019-01-22T04:28:24.754Z,51.40
2019-01-22T04:29:24.736Z,54.20
2019-01-22T04:30:24.718Z,50.10
2019-01-22T04:31:24.703Z,49.50
2019-01-22T04:32:24.682Z,49.30
2019-01-22T04:33:24.668Z,52.50
2019-01-22T04:34:24.649Z,51.90
2019-01-22T04:35:24.631Z,49.80
2019-01-22T04:36:24.615Z,51.20
2019-01-22T04:37:24.595Z,55.80
2019-01-22T04:38:24.582Z,52.90
2019-01-22T04:39:24.567Z,53.80
2019-01-22T04:40:24.544Z,52.40
2019-01-22T04:41:24.525Z,54.20
2019-01-22T04:42:24.513Z,48.80
2019-01-22T04:43:24.499Z,54.00
2019-01-22T04:44:24.476Z,54.70
2019-01-22T04:45:24.471Z,54.20
2019-01-22T04:46:24.441Z,52.30
2019-01-22T04:47:24.422Z,55.10
2019-01-22T04:48:24.403Z,54.00
2019-01-22T04:49:24.386Z,53.70
2019-01-22T04:50:24.375Z,55.00
2019-01-22T04:51:24.352Z,51.70
2019-01-22T04:52:24.334Z,53.30
2019-01-22T04:53:24.357Z,52.90
2019-01-22T04:54:24.302Z,51.70
2019-01-22T04:55:24.286Z,52.50
2019-01-22T04:56:24.267Z,52.90
2019-01-22T04:57:24.250Z,52.50
2019-01-22T04:58:24.232Z,56.30
2019-01-22T04:59:24.218Z,54.30
2019-01-22T05:00:24.197Z,54.90
2019-01-22T05:01:24.186Z,51.50
2019-01-22T05:02:24.162Z,51.20
2019-01-22T05:03:24.149Z,54.80
2019-01-22T05:04:24.127Z,49.10
2019-01-22T05:05:24.112Z,48.70
2019-01-22T05:06:24.093Z,50.80
2019-01-22T05:07:24.077Z,52.00
2019-01-22T05:08:24.059Z,52.70
2019-01-22T05:09:24.041Z,56.40
2019-01-22T05:10:24.024Z,50.60
2019-01-22T05:11:24.006Z,52.70
2019-01-22T05:12:23.989Z,51.70
2019-01-22T05:13:23.973Z,47.10
2019-01-22T05:14:23.954Z,49.30
2019-01-22T05:15:23.939Z,46.90
2019-01-22T05:16:23.917Z,50.60
2019-01-22T05:17:23.904Z,49.70
2019-01-22T05:18:23.885Z,54.30
2019-01-22T05:19:23.867Z,48.00
2019-01-22T05:20:23.850Z,48.60
2019-01-22T05:21:23.833Z,50.90
2019-01-22T05:22:23.817Z,50.90
2019-01-22T05:23:23.798Z,50.10
2019-01-22T05:24:23.783Z,51.00
2019-01-22T05:25:23.795Z,53.90
2019-01-22T05:26:23.749Z,48.00
2019-01-22T05:27:23.729Z,49.70
2019-01-22T05:28:23.711Z,50.30
2019-01-22T05:29:23.696Z,52.50
2019-01-22T05:30:23.676Z,48.70
2019-01-22T05:31:23.660Z,51.40
2019-01-22T05:32:23.641Z,47.10
2019-01-22T05:33:24.040Z,49.00
2019-01-22T05:34:23.608Z,47.50
2019-01-22T05:35:23.589Z,47.00
2019-01-22T05:36:23.574Z,48.90
2019-01-22T05:37:23.553Z,48.30
2019-01-22T05:38:23.538Z,49.60
2019-01-22T05:39:23.531Z,48.60
2019-01-22T05:40:23.503Z,47.50
2019-01-22T05:41:23.486Z,48.10
2019-01-22T05:42:23.469Z,48.00
2019-01-22T05:43:23.453Z,47.90
2019-01-22T05:44:23.434Z,46.10
2019-01-22T05:45:23.418Z,48.50
2019-01-22T05:46:23.401Z,47.00
2019-01-22T05:47:23.385Z,46.20
2019-01-22T05:48:23.366Z,46.90
2019-01-22T05:49:23.349Z,45.10
2019-01-22T05:50:23.329Z,45.10
2019-01-22T05:51:23.322Z,46.20
2019-01-22T05:52:23.295Z,43.30
2019-01-22T05:53:23.281Z,44.60
2019-01-22T05:54:25.372Z,45.90
2019-01-22T05:55:23.244Z,41.90
2019-01-22T05:56:23.227Z,41.10
2019-01-22T05:57:23.210Z,43.20
2019-01-22T05:58:23.198Z,44.80
2019-01-22T05:59:23.174Z,45.90
2019-01-22T06:00:23.163Z,47.80
2019-01-22T06:01:23.140Z,46.50
2019-01-22T06:02:23.127Z,44.70
2019-01-22T06:03:23.108Z,45.80
2019-01-22T06:04:23.087Z,46.60
2019-01-22T06:05:23.071Z,45.60
2019-01-22T06:06:23.057Z,46.50
2019-01-22T06:07:23.036Z,45.50
2019-01-22T06:08:23.017Z,45.30
2019-01-22T06:09:23.001Z,45.20
2019-01-22T06:10:22.985Z,42.40
2019-01-22T06:11:22.968Z,45.70
2019-01-22T06:12:22.950Z,46.30
2019-01-22T06:13:22.934Z,46.20
2019-01-22T06:14:22.915Z,48.30
2019-01-22T06:15:22.903Z,48.60
2019-01-22T06:16:22.883Z,46.20
2019-01-22T06:17:22.866Z,46.50
2019-01-22T06:18:22.861Z,44.40
2019-01-22T06:19:22.832Z,46.40
2019-01-22T06:20:22.813Z,48.70
2019-01-22T06:21:22.799Z,45.80
2019-01-22T06:22:22.780Z,43.50
2019-01-22T06:23:22.761Z,46.10
2019-01-22T06:24:22.743Z,43.40
2019-01-22T06:25:22.740Z,42.40
2019-01-22T06:26:22.709Z,45.10
2019-01-22T06:27:22.696Z,48.50
2019-01-22T06:28:22.677Z,44.10
2019-01-22T06:29:22.661Z,47.30
2019-01-22T06:30:22.641Z,47.10
2019-01-22T06:31:22.622Z,44.30
2019-01-22T06:32:22.605Z,48.60
2019-01-22T06:33:22.588Z,45.30
2019-01-22T06:34:22.577Z,44.50
2019-01-22T06:35:22.556Z,45.60
2019-01-22T06:36:22.535Z,45.20
2019-01-22T06:37:22.530Z,46.50
2019-01-22T06:38:22.499Z,42.10
2019-01-22T06:39:22.484Z,46.60
2019-01-22T06:40:22.466Z,47.10
2019-01-22T06:41:22.446Z,45.50
2019-01-22T06:42:22.431Z,45.00
2019-01-22T06:43:22.414Z,43.10
2019-01-22T06:44:22.394Z,47.10
2019-01-22T06:45:22.378Z,47.20
2019-01-22T06:46:22.361Z,49.00
2019-01-22T06:47:22.343Z,45.00
2019-01-22T06:48:22.325Z,48.20
2019-01-22T06:49:22.309Z,44.60
2019-01-22T06:50:22.291Z,42.60
2019-01-22T06:51:22.275Z,45.00
2019-01-22T06:52:22.258Z,46.20
2019-01-22T06:53:22.241Z,44.30
2019-01-22T06:54:22.221Z,46.30
2019-01-22T06:55:22.204Z,45.80
2019-01-22T06:56:22.189Z,46.40
2019-01-22T06:57:22.176Z,49.30
2019-01-22T06:58:22.157Z,46.90
2019-01-22T06:59:22.136Z,44.50
2019-01-22T07:00:22.118Z,47.60
2019-01-22T07:01:22.103Z,49.80
2019-01-22T07:02:22.085Z,46.90
2019-01-22T07:03:22.068Z,47.00
2019-01-22T07:04:22.048Z,48.80
2019-01-22T07:05:22.032Z,48.00
2019-01-22T07:06:22.014Z,49.00
2019-01-22T07:07:21.994Z,45.90
2019-01-22T07:08:21.981Z,49.40
2019-01-22T07:09:21.959Z,48.20
2019-01-22T07:10:21.942Z,46.90
2019-01-22T07:11:21.929Z,48.80
2019-01-22T07:12:21.909Z,49.50
2019-01-22T07:13:21.891Z,49.00
2019-01-22T07:14:21.874Z,49.20
2019-01-22T07:15:21.857Z,46.90
2019-01-22T07:16:21.838Z,48.70
2019-01-22T07:17:21.820Z,48.50
2019-01-22T07:18:21.805Z,47.30
2019-01-22T07:19:21.792Z,48.50
2019-01-22T07:20:21.767Z,49.30
2019-01-22T07:21:21.751Z,45.70
2019-01-22T07:22:21.737Z,47.90
2019-01-22T07:23:21.719Z,48.70
2019-01-22T07:24:21.698Z,45.70
2019-01-22T07:25:21.684Z,45.80
2019-01-22T07:26:21.663Z,48.00
2019-01-22T07:27:21.649Z,46.70
2019-01-22T07:28:21.631Z,46.40
2019-01-22T07:29:21.612Z,49.70
2019-01-22T07:30:21.595Z,45.90
2019-01-22T07:31:21.579Z,47.60
2019-01-22T07:32:21.561Z,49.50
2019-01-22T07:33:21.548Z,44.50
2019-01-22T07:34:21.527Z,45.70
2019-01-22T07:35:21.510Z,44.50
2019-01-22T07:36:21.490Z,45.30
2019-01-22T07:37:21.473Z,44.30
2019-01-22T07:38:21.458Z,44.20
2019-01-22T07:39:21.440Z,46.10
2019-01-22T07:40:21.422Z,46.50
2019-01-22T07:41:21.406Z,48.50
2019-01-22T07:42:21.388Z,46.40
2019-01-22T07:43:21.370Z,43.80
2019-01-22T07:44:21.350Z,46.90
2019-01-22T07:45:21.335Z,44.70
2019-01-22T07:46:21.318Z,46.40
2019-01-22T07:47:21.300Z,46.40
2019-01-22T07:48:21.283Z,45.70
2019-01-22T07:49:21.264Z,44.50
2019-01-22T07:50:21.248Z,51.30
2019-01-22T07:51:21.230Z,47.60
2019-01-22T07:52:21.211Z,49.80
2019-01-22T07:53:21.200Z,51.80
2019-01-22T07:54:21.177Z,49.70
2019-01-22T07:55:21.164Z,48.00
2019-01-22T07:56:21.141Z,49.80
2019-01-22T07:57:21.126Z,45.30
2019-01-22T07:58:21.107Z,45.60
2019-01-22T07:59:21.090Z,48.30
2019-01-22T08:00:21.074Z,49.10
2019-01-22T08:01:21.057Z,47.90
2019-01-22T08:02:21.037Z,44.90
2019-01-22T08:03:21.023Z,48.80
2019-01-22T08:04:21.007Z,50.50
2019-01-22T08:05:21.000Z,47.10
2019-01-22T08:06:20.971Z,49.50
2019-01-22T08:07:20.957Z,45.70
2019-01-22T08:08:20.939Z,47.40
2019-01-22T08:09:20.921Z,48.00
2019-01-22T08:10:20.903Z,49.40
2019-01-22T08:11:20.887Z,50.70
2019-01-22T08:12:20.871Z,47.90
2019-01-22T08:13:20.852Z,48.20
2019-01-22T08:14:20.833Z,47.50
2019-01-22T08:15:20.814Z,48.50
2019-01-22T08:16:20.795Z,50.20
2019-01-22T08:17:20.778Z,48.60
2019-01-22T08:18:20.762Z,48.10
2019-01-22T08:19:20.745Z,48.50
2019-01-22T08:20:20.725Z,48.40
2019-01-22T08:21:20.708Z,48.60
2019-01-22T08:22:20.693Z,47.20
2019-01-22T08:23:20.675Z,48.60
2019-01-22T08:24:20.657Z,49.30
2019-01-22T08:25:20.649Z,49.10
2019-01-22T08:26:20.621Z,50.20
2019-01-22T08:27:20.610Z,51.70
2019-01-22T08:28:20.587Z,50.10
2019-01-22T08:29:20.570Z,49.20
2019-01-22T08:30:20.552Z,50.70
2019-01-22T08:31:20.537Z,50.00
2019-01-22T08:32:20.518Z,51.30
2019-01-22T08:33:20.502Z,49.20
2019-01-22T08:34:20.486Z,49.70
2019-01-22T08:35:20.465Z,50.00
2019-01-22T08:36:20.450Z,50.00
2019-01-22T08:37:20.430Z,48.60
2019-01-22T08:38:20.416Z,45.20
2019-01-22T08:39:20.396Z,45.70
2019-01-22T08:40:20.381Z,48.00
2019-01-22T08:41:20.363Z,50.60
2019-01-22T08:42:20.345Z,47.50
2019-01-22T08:43:20.326Z,46.80
2019-01-22T08:44:20.309Z,47.50
2019-01-22T08:45:20.292Z,48.30
2019-01-22T08:46:20.275Z,47.00
2019-01-22T08:47:20.258Z,53.30
2019-01-22T08:48:20.239Z,50.60
2019-01-22T08:49:20.222Z,48.50
2019-01-22T08:50:20.207Z,49.20
2019-01-22T08:51:20.187Z,48.50
2019-01-22T08:52:20.171Z,51.30
2019-01-22T08:53:20.152Z,49.90
2019-01-22T08:54:20.178Z,49.00
2019-01-22T08:55:20.118Z,50.90
2019-01-22T08:56:20.102Z,49.70
2019-01-22T08:57:20.085Z,49.60
2019-01-22T08:58:20.068Z,47.90
2019-01-22T08:59:20.049Z,51.00
2019-01-22T09:00:20.034Z,49.20
2019-01-22T09:01:20.016Z,49.10
2019-01-22T09:02:20.002Z,51.20
2019-01-22T09:03:19.979Z,51.30
2019-01-22T09:04:19.961Z,48.50
2019-01-22T09:05:19.944Z,50.50
2019-01-22T09:06:19.927Z,46.50
2019-01-22T09:07:19.910Z,48.50
2019-01-22T09:08:19.896Z,51.50
2019-01-22T09:09:19.874Z,49.20
2019-01-22T09:10:19.860Z,48.80
2019-01-22T09:11:19.843Z,46.50
2019-01-22T09:12:19.826Z,49.10
2019-01-22T09:13:19.806Z,45.90
2019-01-22T09:14:19.789Z,47.00
2019-01-22T09:15:19.772Z,49.50
2019-01-22T09:16:19.753Z,46.70
2019-01-22T09:17:19.737Z,47.40
2019-01-22T09:18:19.720Z,45.00
2019-01-22T09:19:19.704Z,46.30
2019-01-22T09:20:19.684Z,46.00
2019-01-22T09:21:19.668Z,50.30
2019-01-22T09:22:19.653Z,48.50
2019-01-22T09:23:19.634Z,50.00
2019-01-22T09:24:19.614Z,46.70
2019-01-22T09:25:19.600Z,50.00
2019-01-22T09:26:19.588Z,45.80
2019-01-22T09:27:19.566Z,51.40
2019-01-22T09:28:19.549Z,47.30
2019-01-22T09:29:19.531Z,46.80
2019-01-22T09:30:19.516Z,49.00
2019-01-22T09:31:19.502Z,49.60
2019-01-22T09:32:19.483Z,48.00
2019-01-22T09:33:19.466Z,46.90
2019-01-22T09:34:19.448Z,47.90
2019-01-22T09:35:19.432Z,48.80
2019-01-22T09:36:19.413Z,46.60
2019-01-22T09:37:19.399Z,51.20
2019-01-22T09:38:19.380Z,48.70
2019-01-22T09:39:19.361Z,52.00
2019-01-22T09:40:19.345Z,48.60
2019-01-22T09:41:19.325Z,47.80
2019-01-22T09:42:19.310Z,47.80
2019-01-22T09:43:19.291Z,51.00
2019-01-22T09:44:19.275Z,47.40
2019-01-22T09:45:19.257Z,50.00
2019-01-22T09:46:19.241Z,49.40
2019-01-22T09:47:19.224Z,48.60
2019-01-22T09:48:19.210Z,50.10
2019-01-22T09:49:19.190Z,48.60
2019-01-22T09:50:19.173Z,46.20
2019-01-22T09:51:19.161Z,47.20
2019-01-22T09:52:19.138Z,49.20
2019-01-22T09:53:19.123Z,50.10
2019-01-22T09:54:19.104Z,49.80
2019-01-22T09:55:22.573Z,52.40
2019-01-22T09:56:19.069Z,50.00
2019-01-22T09:57:19.051Z,47.80
2019-01-22T09:58:19.036Z,55.40
2019-01-22T09:59:19.018Z,49.80
2019-01-22T10:00:18.999Z,46.20
2019-01-22T10:01:18.985Z,45.90
2019-01-22T10:02:18.966Z,47.70
2019-01-22T10:03:18.950Z,48.70
2019-01-22T10:04:18.931Z,50.50
2019-01-22T10:05:18.917Z,46.30
2019-01-22T10:06:18.896Z,47.30
2019-01-22T10:07:18.881Z,47.70
2019-01-22T10:08:18.864Z,49.30
2019-01-22T10:09:18.846Z,46.60
2019-01-22T10:10:18.831Z,49.00
2019-01-22T10:11:18.816Z,46.90
2019-01-22T10:12:18.797Z,47.10
2019-01-22T10:13:18.778Z,47.60
2019-01-22T10:14:18.762Z,51.90
2019-01-22T10:15:18.745Z,51.00
2019-01-22T10:16:18.732Z,48.00
2019-01-22T10:17:18.710Z,47.00
2019-01-22T10:18:18.696Z,50.70
2019-01-22T10:19:18.677Z,49.20
2019-01-22T10:20:18.662Z,51.00
2019-01-22T10:21:18.642Z,50.90
2019-01-22T10:22:18.629Z,48.50
2019-01-22T10:23:18.614Z,45.70
2019-01-22T10:24:18.610Z,50.50
2019-01-22T10:25:18.578Z,50.80
2019-01-22T10:26:18.560Z,47.90
2019-01-22T10:27:18.549Z,48.80
2019-01-22T10:28:18.523Z,47.40
2019-01-22T10:29:18.505Z,48.70
2019-01-22T10:30:18.490Z,47.70
2019-01-22T10:31:18.476Z,47.40
2019-01-22T10:32:18.456Z,47.00
2019-01-22T10:33:18.439Z,45.50
2019-01-22T10:34:18.423Z,48.00
2019-01-22T10:35:18.406Z,45.60
2019-01-22T10:36:18.388Z,50.30
2019-01-22T10:37:18.371Z,47.00
2019-01-22T10:38:18.354Z,48.80
2019-01-22T10:39:18.339Z,49.00
2019-01-22T10:40:18.321Z,47.50
2019-01-22T10:41:18.305Z,47.00
2019-01-22T10:42:18.290Z,50.20
2019-01-22T10:43:18.276Z,45.80
2019-01-22T10:44:18.254Z,46.80
2019-01-22T10:45:18.236Z,49.80
2019-01-22T10:46:18.220Z,47.90
2019-01-22T10:47:18.206Z,48.50
2019-01-22T10:48:18.187Z,52.20
2019-01-22T10:49:18.169Z,49.40
2019-01-22T10:50:18.153Z,47.30
2019-01-22T10:51:18.136Z,46.70
2019-01-22T10:52:18.119Z,46.50
2019-01-22T10:53:18.106Z,50.60
2019-01-22T10:54:18.085Z,48.50
2019-01-22T10:55:18.071Z,49.50
2019-01-22T10:56:18.051Z,47.30
2019-01-22T10:57:18.037Z,48.70
2019-01-22T10:58:18.019Z,47.20
2019-01-22T10:59:18.001Z,51.10
2019-01-22T11:00:17.985Z,48.10
2019-01-22T11:01:17.967Z,48.20
2019-01-22T11:02:17.953Z,49.10
2019-01-22T11:03:17.934Z,49.90
2019-01-22T11:04:17.919Z,49.80
2019-01-22T11:05:17.902Z,48.90
2019-01-22T11:06:17.885Z,48.30
2019-01-22T11:07:17.867Z,50.00
2019-01-22T11:08:17.849Z,51.10
2019-01-22T11:09:17.833Z,53.30
2019-01-22T11:10:17.817Z,47.10
2019-01-22T11:11:17.801Z,49.70
2019-01-22T11:12:17.781Z,47.80
2019-01-22T11:13:17.768Z,50.00
2019-01-22T11:14:17.748Z,49.70
2019-01-22T11:15:17.733Z,49.90
2019-01-22T11:16:17.717Z,49.60
2019-01-22T11:17:17.697Z,48.90
2019-01-22T11:18:17.691Z,48.90
2019-01-22T11:19:17.669Z,47.50
2019-01-22T11:20:17.676Z,47.40
2019-01-22T11:21:17.635Z,47.80
2019-01-22T11:22:17.616Z,48.50
2019-01-22T11:23:17.600Z,47.50
2019-01-22T11:24:17.583Z,47.80
2019-01-22T11:25:17.568Z,47.70
2019-01-22T11:26:17.552Z,49.70
2019-01-22T11:27:17.536Z,46.50
2019-01-22T11:28:17.515Z,47.30
2019-01-22T11:29:17.498Z,46.60
2019-01-22T11:30:17.483Z,48.40
2019-01-22T11:31:17.467Z,48.60
2019-01-22T11:32:17.448Z,46.90
2019-01-22T11:33:17.431Z,43.70
2019-01-22T11:34:17.423Z,47.20
2019-01-22T11:35:17.409Z,42.50
2019-01-22T11:36:17.382Z,46.60
2019-01-22T11:37:17.367Z,44.80
2019-01-22T11:38:17.349Z,48.00
2019-01-22T11:39:17.334Z,46.70
2019-01-22T11:40:17.313Z,43.60
2019-01-22T11:41:17.302Z,46.10
2019-01-22T11:42:17.284Z,43.70
2019-01-22T11:43:17.266Z,43.70
2019-01-22T11:44:17.249Z,44.80
2019-01-22T11:45:17.231Z,43.10
2019-01-22T11:46:17.213Z,44.70
2019-01-22T11:47:17.198Z,44.50
2019-01-22T11:48:17.182Z,42.10
2019-01-22T11:49:23.224Z,43.30
2019-01-22T11:50:17.146Z,41.20
2019-01-22T11:51:17.131Z,43.00
2019-01-22T11:52:17.115Z,44.60
2019-01-22T11:53:17.098Z,41.00
2019-01-22T11:54:17.080Z,45.90
2019-01-22T11:55:17.066Z,43.00
2019-01-22T11:56:17.047Z,41.70
2019-01-22T11:57:17.030Z,42.60
2019-01-22T11:58:17.015Z,41.90
2019-01-22T11:59:16.997Z,43.60
2019-01-22T12:00:16.980Z,43.00
2019-01-22T12:01:16.966Z,45.30
2019-01-22T12:02:16.950Z,41.50
2019-01-22T12:03:16.930Z,44.00
2019-01-22T12:04:16.913Z,48.80
2019-01-22T12:05:16.899Z,41.50
2019-01-22T12:06:16.884Z,44.70
2019-01-22T12:07:16.866Z,44.20
2019-01-22T12:08:16.848Z,42.50
2019-01-22T12:09:16.829Z,42.40
2019-01-22T12:10:16.813Z,43.00
2019-01-22T12:11:16.802Z,43.90
2019-01-22T12:12:16.780Z,37.90
2019-01-22T12:13:16.764Z,39.70
2019-01-22T12:14:16.747Z,43.30
2019-01-22T12:15:16.731Z,42.00
2019-01-22T12:16:16.714Z,41.10
2019-01-22T12:17:16.697Z,42.30
2019-01-22T12:18:16.681Z,44.20
2019-01-22T12:19:16.665Z,44.00
2019-01-22T12:20:16.649Z,43.10
2019-01-22T12:21:16.633Z,40.00
2019-01-22T12:22:16.613Z,41.00
2019-01-22T12:23:16.597Z,43.60
2019-01-22T12:24:16.580Z,41.80
2019-01-22T12:25:16.564Z,40.90
2019-01-22T12:26:16.550Z,42.90
2019-01-22T12:27:16.534Z,41.50
2019-01-22T12:28:16.518Z,42.00
2019-01-22T12:29:16.498Z,43.40
2019-01-22T12:30:16.482Z,40.50
2019-01-22T12:31:16.467Z,43.50
2019-01-22T12:32:16.450Z,41.00
2019-01-22T12:33:16.434Z,43.40
2019-01-22T12:34:16.415Z,44.20
2019-01-22T12:35:16.402Z,42.70
2019-01-22T12:36:16.383Z,42.80
2019-01-22T12:37:16.366Z,43.00
2019-01-22T12:38:16.348Z,43.50
2019-01-22T12:39:16.332Z,43.50
2019-01-22T12:40:16.318Z,43.90
2019-01-22T12:41:16.299Z,43.70
2019-01-22T12:42:16.284Z,42.20
2019-01-22T12:43:16.266Z,43.90
2019-01-22T12:44:16.249Z,45.70
2019-01-22T12:45:16.235Z,41.10
2019-01-22T12:46:16.216Z,45.20
2019-01-22T12:47:16.200Z,44.80
2019-01-22T12:48:16.182Z,42.50
2019-01-22T12:49:16.167Z,43.60
2019-01-22T12:50:16.149Z,43.00
2019-01-22T12:51:16.137Z,42.00
2019-01-22T12:52:16.116Z,39.70